Terminal Aerodrome Forecast
Issued by NWS

Home | Current Version | Previous Version | Text Only | Print | Product List | Glossary On
Versions: 1 2 3 4 5 6 7 8 9 10 11 12
250
FTUS41 KPHI 291131
TAFMIV
TAF
KMIV 291131Z 2912/3012 19005KT P6SM BKN200
     FM291700 18008KT P6SM SCT035 OVC200
     FM292200 17005KT P6SM -SHRA FEW030 OVC060
      TEMPO 2923/3003 4SM SHRA OVC030
     FM300900 15005KT 3SM SHRA OVC009=

USA.gov is the U.S. government's official web portal to all federal, state and local government web resources and services.